sensor_id;sensor_type;location;lat;lon;timestamp;pressure;altitude;pressure_sealevel;temperature;humidity
74921;BME280;63483;47.384;8.860;2024-02-23T00:00:28;93038.19;;;4.35;48.90
74921;BME280;63483;47.384;8.860;2024-02-23T00:02:53;93034.16;;;4.48;49.01
74921;BME280;63483;47.384;8.860;2024-02-23T00:05:21;93030.88;;;4.39;47.60
74921;BME280;63483;47.384;8.860;2024-02-23T00:07:47;93020.56;;;4.46;48.11
74921;BME280;63483;47.384;8.860;2024-02-23T00:10:12;93018.97;;;4.45;48.07
74921;BME280;63483;47.384;8.860;2024-02-23T00:12:37;93002.53;;;4.37;47.92
74921;BME280;63483;47.384;8.860;2024-02-23T00:15:03;93002.44;;;4.31;48.25
74921;BME280;63483;47.384;8.860;2024-02-23T00:17:29;93010.41;;;4.29;47.21
74921;BME280;63483;47.384;8.860;2024-02-23T00:19:54;93019.72;;;4.08;46.80
74921;BME280;63483;47.384;8.860;2024-02-23T00:22:19;93009.16;;;4.10;47.01
74921;BME280;63483;47.384;8.860;2024-02-23T00:24:45;93007.19;;;4.27;47.52
74921;BME280;63483;47.384;8.860;2024-02-23T00:27:10;93003.31;;;4.38;46.95
74921;BME280;63483;47.384;8.860;2024-02-23T00:29:35;93011.94;;;4.38;47.26
74921;BME280;63483;47.384;8.860;2024-02-23T00:32:02;93014.78;;;4.29;46.78
74921;BME280;63483;47.384;8.860;2024-02-23T00:34:27;92996.88;;;4.34;46.47
74921;BME280;63483;47.384;8.860;2024-02-23T00:36:55;92991.25;;;4.45;46.98
74921;BME280;63483;47.384;8.860;2024-02-23T00:39:21;92991.78;;;4.40;47.12
74921;BME280;63483;47.384;8.860;2024-02-23T00:41:46;92989.44;;;4.46;46.31
74921;BME280;63483;47.384;8.860;2024-02-23T00:44:11;92978.28;;;4.45;46.50
74921;BME280;63483;47.384;8.860;2024-02-23T00:46:37;92974.41;;;4.56;46.59
74921;BME280;63483;47.384;8.860;2024-02-23T00:49:02;92968.50;;;4.62;46.20
74921;BME280;63483;47.384;8.860;2024-02-23T00:51:27;92968.13;;;4.65;46.76
74921;BME280;63483;47.384;8.860;2024-02-23T00:53:53;92964.00;;;4.34;45.89
74921;BME280;63483;47.384;8.860;2024-02-23T00:56:18;92967.34;;;4.28;46.27
74921;BME280;63483;47.384;8.860;2024-02-23T00:58:43;92974.03;;;4.37;46.11
74921;BME280;63483;47.384;8.860;2024-02-23T01:01:09;92979.44;;;4.42;46.47
74921;BME280;63483;47.384;8.860;2024-02-23T01:03:34;92981.44;;;4.40;46.02
74921;BME280;63483;47.384;8.860;2024-02-23T01:05:59;93000.19;;;4.42;45.55
74921;BME280;63483;47.384;8.860;2024-02-23T01:08:25;93005.19;;;4.44;45.97
74921;BME280;63483;47.384;8.860;2024-02-23T01:10:50;93008.66;;;4.51;45.46
74921;BME280;63483;47.384;8.860;2024-02-23T01:13:15;93006.38;;;4.41;45.67
74921;BME280;63483;47.384;8.860;2024-02-23T01:15:41;93011.59;;;4.27;45.42
74921;BME280;63483;47.384;8.860;2024-02-23T01:18:07;93010.19;;;4.46;45.51
74921;BME280;63483;47.384;8.860;2024-02-23T01:20:33;93003.06;;;4.48;45.08
74921;BME280;63483;47.384;8.860;2024-02-23T01:22:58;93001.19;;;4.41;45.34
74921;BME280;63483;47.384;8.860;2024-02-23T01:25:23;92993.47;;;4.48;45.25
74921;BME280;63483;47.384;8.860;2024-02-23T01:27:49;93018.59;;;4.48;45.53
74921;BME280;63483;47.384;8.860;2024-02-23T01:30:14;93025.84;;;4.37;45.15
74921;BME280;63483;47.384;8.860;2024-02-23T01:32:40;93014.22;;;4.48;45.53
74921;BME280;63483;47.384;8.860;2024-02-23T01:35:06;93020.06;;;3.76;43.52
74921;BME280;63483;47.384;8.860;2024-02-23T01:37:32;93017.91;;;3.26;43.40
74921;BME280;63483;47.384;8.860;2024-02-23T01:39:58;93031.75;;;2.64;43.59
74921;BME280;63483;47.384;8.860;2024-02-23T01:42:24;93014.66;;;2.23;44.18
74921;BME280;63483;47.384;8.860;2024-02-23T01:44:50;93026.13;;;2.21;47.65
74921;BME280;63483;47.384;8.860;2024-02-23T01:47:16;93005.16;;;2.24;46.20
74921;BME280;63483;47.384;8.860;2024-02-23T01:49:41;93022.59;;;2.22;45.33
74921;BME280;63483;47.384;8.860;2024-02-23T01:52:07;93015.97;;;2.19;45.13
74921;BME280;63483;47.384;8.860;2024-02-23T01:54:32;93012.47;;;2.12;46.22
74921;BME280;63483;47.384;8.860;2024-02-23T01:56:59;93028.63;;;2.06;45.38
74921;BME280;63483;47.384;8.860;2024-02-23T01:59:26;93028.16;;;2.02;51.09
74921;BME280;63483;47.384;8.860;2024-02-23T02:01:52;93029.28;;;2.00;49.71
74921;BME280;63483;47.384;8.860;2024-02-23T02:04:17;93037.41;;;1.88;53.39
74921;BME280;63483;47.384;8.860;2024-02-23T02:06:45;93031.19;;;1.58;55.39
74921;BME280;63483;47.384;8.860;2024-02-23T02:09:10;93048.38;;;1.90;52.28
74921;BME280;63483;47.384;8.860;2024-02-23T02:11:45;93033.59;;;0.85;56.05
74921;BME280;63483;47.384;8.860;2024-02-23T02:14:10;93033.47;;;1.53;53.66
74921;BME280;63483;47.384;8.860;2024-02-23T02:16:36;93033.41;;;1.36;51.81
74921;BME280;63483;47.384;8.860;2024-02-23T02:19:01;93047.16;;;1.20;52.90
74921;BME280;63483;47.384;8.860;2024-02-23T02:21:26;93041.84;;;1.22;51.08
74921;BME280;63483;47.384;8.860;2024-02-23T02:23:53;93025.03;;;0.77;53.21
74921;BME280;63483;47.384;8.860;2024-02-23T02:26:18;93024.59;;;1.31;52.85
74921;BME280;63483;47.384;8.860;2024-02-23T02:28:44;93019.41;;;0.98;54.14
74921;BME280;63483;47.384;8.860;2024-02-23T02:31:09;93008.94;;;1.07;48.21
74921;BME280;63483;47.384;8.860;2024-02-23T02:33:35;92988.16;;;0.76;54.55
74921;BME280;63483;47.384;8.860;2024-02-23T02:36:00;92963.66;;;1.05;46.26
74921;BME280;63483;47.384;8.860;2024-02-23T02:38:25;92974.63;;;0.66;44.89
74921;BME280;63483;47.384;8.860;2024-02-23T02:40:50;92992.63;;;0.41;44.16
74921;BME280;63483;47.384;8.860;2024-02-23T02:43:16;92992.63;;;0.57;46.17
74921;BME280;63483;47.384;8.860;2024-02-23T02:45:41;92991.72;;;0.67;47.07
74921;BME280;63483;47.384;8.860;2024-02-23T02:48:07;92984.94;;;0.82;47.00
74921;BME280;63483;47.384;8.860;2024-02-23T02:50:32;92990.09;;;1.07;49.37
74921;BME280;63483;47.384;8.860;2024-02-23T02:52:58;92981.69;;;1.21;47.21
74921;BME280;63483;47.384;8.860;2024-02-23T02:55:23;92983.28;;;1.39;47.05
74921;BME280;63483;47.384;8.860;2024-02-23T02:57:48;92982.47;;;1.63;49.85
74921;BME280;63483;47.384;8.860;2024-02-23T03:00:13;92984.78;;;1.89;50.39
74921;BME280;63483;47.384;8.860;2024-02-23T03:02:39;92971.47;;;2.09;50.56
74921;BME280;63483;47.384;8.860;2024-02-23T03:05:04;92967.22;;;2.24;50.16
74921;BME280;63483;47.384;8.860;2024-02-23T03:07:30;92965.50;;;2.40;50.42
74921;BME280;63483;47.384;8.860;2024-02-23T03:09:55;92962.19;;;2.54;50.55
74921;BME280;63483;47.384;8.860;2024-02-23T03:12:21;92967.75;;;2.66;50.55
74921;BME280;63483;47.384;8.860;2024-02-23T03:14:46;92976.25;;;2.75;50.43
74921;BME280;63483;47.384;8.860;2024-02-23T03:17:11;92963.28;;;2.83;49.78
74921;BME280;63483;47.384;8.860;2024-02-23T03:19:38;92962.94;;;2.86;50.10
74921;BME280;63483;47.384;8.860;2024-02-23T03:22:03;92947.78;;;2.83;50.06
74921;BME280;63483;47.384;8.860;2024-02-23T03:24:29;92942.34;;;2.93;50.14
74921;BME280;63483;47.384;8.860;2024-02-23T03:26:54;92945.66;;;3.01;50.04
74921;BME280;63483;47.384;8.860;2024-02-23T03:29:20;92960.50;;;3.08;50.13
74921;BME280;63483;47.384;8.860;2024-02-23T03:31:49;92960.78;;;3.13;50.03
74921;BME280;63483;47.384;8.860;2024-02-23T03:34:14;92976.56;;;3.18;50.02
74921;BME280;63483;47.384;8.860;2024-02-23T03:36:39;92960.34;;;3.24;50.04
74921;BME280;63483;47.384;8.860;2024-02-23T03:39:05;92966.78;;;3.28;50.04
74921;BME280;63483;47.384;8.860;2024-02-23T03:41:30;92954.50;;;3.30;50.06
74921;BME280;63483;47.384;8.860;2024-02-23T03:43:56;92956.91;;;3.32;50.04
74921;BME280;63483;47.384;8.860;2024-02-23T03:46:21;92959.94;;;3.35;50.03
74921;BME280;63483;47.384;8.860;2024-02-23T03:48:47;92962.97;;;3.39;50.07
74921;BME280;63483;47.384;8.860;2024-02-23T03:51:12;92960.22;;;3.41;49.98
74921;BME280;63483;47.384;8.860;2024-02-23T03:53:38;92951.47;;;3.42;49.81
74921;BME280;63483;47.384;8.860;2024-02-23T03:56:03;92941.13;;;3.42;49.91
74921;BME280;63483;47.384;8.860;2024-02-23T03:58:29;92945.16;;;3.44;49.94
74921;BME280;63483;47.384;8.860;2024-02-23T04:00:54;92932.63;;;3.48;50.01
74921;BME280;63483;47.384;8.860;2024-02-23T04:03:19;92924.69;;;3.49;50.00
74921;BME280;63483;47.384;8.860;2024-02-23T04:05:45;92933.28;;;3.50;50.00
74921;BME280;63483;47.384;8.860;2024-02-23T04:08:10;92919.34;;;3.51;49.97
74921;BME280;63483;47.384;8.860;2024-02-23T04:10:35;92917.75;;;3.50;50.12
74921;BME280;63483;47.384;8.860;2024-02-23T04:13:01;92919.34;;;3.51;49.93
74921;BME280;63483;47.384;8.860;2024-02-23T04:15:26;92909.81;;;3.51;49.96
74921;BME280;63483;47.384;8.860;2024-02-23T04:17:52;92917.41;;;3.53;49.82
74921;BME280;63483;47.384;8.860;2024-02-23T04:20:17;92924.19;;;3.54;49.88
74921;BME280;63483;47.384;8.860;2024-02-23T04:22:43;92934.88;;;3.51;49.80
74921;BME280;63483;47.384;8.860;2024-02-23T04:25:08;92931.78;;;3.56;49.73
74921;BME280;63483;47.384;8.860;2024-02-23T04:27:33;92932.56;;;3.56;49.70
74921;BME280;63483;47.384;8.860;2024-02-23T04:29:58;92929.00;;;3.57;49.13
74921;BME280;63483;47.384;8.860;2024-02-23T04:32:24;92934.19;;;3.57;48.79
74921;BME280;63483;47.384;8.860;2024-02-23T04:34:49;92944.53;;;3.57;49.12
74921;BME280;63483;47.384;8.860;2024-02-23T04:37:14;92935.59;;;3.60;48.43
74921;BME280;63483;47.384;8.860;2024-02-23T04:39:40;92936.41;;;3.60;48.28
74921;BME280;63483;47.384;8.860;2024-02-23T04:42:07;92933.00;;;3.60;48.19
74921;BME280;63483;47.384;8.860;2024-02-23T04:44:34;92952.03;;;3.52;48.16
74921;BME280;63483;47.384;8.860;2024-02-23T04:46:59;92952.66;;;3.54;47.83
74921;BME280;63483;47.384;8.860;2024-02-23T04:49:25;92972.72;;;3.52;47.87
74921;BME280;63483;47.384;8.860;2024-02-23T04:51:50;92963.16;;;3.52;47.58
74921;BME280;63483;47.384;8.860;2024-02-23T04:54:15;92958.81;;;3.53;47.34
74921;BME280;63483;47.384;8.860;2024-02-23T04:56:41;92958.81;;;3.53;47.46
74921;BME280;63483;47.384;8.860;2024-02-23T04:59:06;92944.63;;;3.49;46.84
74921;BME280;63483;47.384;8.860;2024-02-23T05:01:35;92953.34;;;3.48;47.28
74921;BME280;63483;47.384;8.860;2024-02-23T05:04:02;92956.81;;;3.40;46.99
74921;BME280;63483;47.384;8.860;2024-02-23T05:06:28;92954.94;;;3.34;47.12
74921;BME280;63483;47.384;8.860;2024-02-23T05:08:53;92938.88;;;3.39;46.40
74921;BME280;63483;47.384;8.860;2024-02-23T05:11:18;92939.88;;;3.37;46.57
74921;BME280;63483;47.384;8.860;2024-02-23T05:13:44;92928.75;;;3.29;46.56
74921;BME280;63483;47.384;8.860;2024-02-23T05:16:09;92925.69;;;3.33;46.77
74921;BME280;63483;47.384;8.860;2024-02-23T05:18:35;92942.97;;;3.33;46.49
74921;BME280;63483;47.384;8.860;2024-02-23T05:21:00;92944.13;;;3.30;46.71
74921;BME280;63483;47.384;8.860;2024-02-23T05:23:25;92940.53;;;3.31;46.70
74921;BME280;63483;47.384;8.860;2024-02-23T05:25:51;92938.97;;;3.30;46.54
74921;BME280;63483;47.384;8.860;2024-02-23T05:28:16;92926.63;;;3.32;45.87
74921;BME280;63483;47.384;8.860;2024-02-23T05:30:41;92938.63;;;3.33;45.75
74921;BME280;63483;47.384;8.860;2024-02-23T05:33:07;92944.94;;;3.31;46.13
74921;BME280;63483;47.384;8.860;2024-02-23T05:35:33;92941.84;;;3.35;46.30
74921;BME280;63483;47.384;8.860;2024-02-23T05:37:58;92942.44;;;3.37;46.19
74921;BME280;63483;47.384;8.860;2024-02-23T05:40:24;92951.72;;;2.94;46.18
74921;BME280;63483;47.384;8.860;2024-02-23T05:42:49;92949.75;;;2.26;43.66
74921;BME280;63483;47.384;8.860;2024-02-23T05:45:14;92943.44;;;1.58;42.48
74921;BME280;63483;47.384;8.860;2024-02-23T05:47:40;92942.38;;;1.27;43.58
74921;BME280;63483;47.384;8.860;2024-02-23T05:50:08;92931.13;;;1.04;43.58
74921;BME280;63483;47.384;8.860;2024-02-23T05:52:34;92937.84;;;1.21;46.83
74921;BME280;63483;47.384;8.860;2024-02-23T05:55:00;92925.97;;;0.96;55.41
74921;BME280;63483;47.384;8.860;2024-02-23T05:57:26;92920.19;;;0.36;47.64
74921;BME280;63483;47.384;8.860;2024-02-23T05:59:52;92923.50;;;0.03;46.00
74921;BME280;63483;47.384;8.860;2024-02-23T06:02:18;92921.44;;;-0.44;46.25
74921;BME280;63483;47.384;8.860;2024-02-23T06:04:43;92930.75;;;-0.77;47.32
74921;BME280;63483;47.384;8.860;2024-02-23T06:07:08;92932.22;;;-1.01;47.51
74921;BME280;63483;47.384;8.860;2024-02-23T06:09:34;92931.06;;;-1.25;48.03
74921;BME280;63483;47.384;8.860;2024-02-23T06:11:59;92939.84;;;-1.27;48.02
74921;BME280;63483;47.384;8.860;2024-02-23T06:14:25;92935.25;;;-1.24;47.92
74921;BME280;63483;47.384;8.860;2024-02-23T06:16:50;92943.91;;;-1.25;47.67
74921;BME280;63483;47.384;8.860;2024-02-23T06:19:16;92944.78;;;-1.34;47.83
74921;BME280;63483;47.384;8.860;2024-02-23T06:21:41;92941.00;;;-1.48;47.65
74921;BME280;63483;47.384;8.860;2024-02-23T06:24:07;92944.53;;;-1.49;47.23
74921;BME280;63483;47.384;8.860;2024-02-23T06:26:34;92936.28;;;-1.52;46.25
74921;BME280;63483;47.384;8.860;2024-02-23T06:28:59;92943.31;;;-1.37;46.60
74921;BME280;63483;47.384;8.860;2024-02-23T06:31:24;92934.00;;;-1.38;46.69
74921;BME280;63483;47.384;8.860;2024-02-23T06:33:50;92936.16;;;-1.33;46.99
74921;BME280;63483;47.384;8.860;2024-02-23T06:36:17;92942.00;;;-1.23;46.60
74921;BME280;63483;47.384;8.860;2024-02-23T06:38:43;92947.31;;;-0.98;46.14
74921;BME280;63483;47.384;8.860;2024-02-23T06:41:08;92970.84;;;-0.85;45.95
74921;BME280;63483;47.384;8.860;2024-02-23T06:43:36;92979.13;;;-0.46;47.57
74921;BME280;63483;47.384;8.860;2024-02-23T06:46:07;92960.91;;;-0.19;47.25
74921;BME280;63483;47.384;8.860;2024-02-23T06:48:34;92954.88;;;0.07;49.22
74921;BME280;63483;47.384;8.860;2024-02-23T06:50:59;92966.50;;;0.28;44.87
74921;BME280;63483;47.384;8.860;2024-02-23T06:53:25;92963.81;;;0.62;48.04
74921;BME280;63483;47.384;8.860;2024-02-23T06:55:50;92972.47;;;-0.23;54.78
74921;BME280;63483;47.384;8.860;2024-02-23T06:58:15;92959.38;;;-0.72;48.37
74921;BME280;63483;47.384;8.860;2024-02-23T07:00:42;92970.91;;;-1.03;48.40
74921;BME280;63483;47.384;8.860;2024-02-23T07:03:07;92974.00;;;-1.35;49.88
74921;BME280;63483;47.384;8.860;2024-02-23T07:05:33;92970.34;;;-1.50;49.60
74921;BME280;63483;47.384;8.860;2024-02-23T07:08:00;92946.94;;;-1.65;49.20
74921;BME280;63483;47.384;8.860;2024-02-23T07:10:26;92948.34;;;-1.89;49.18
74921;BME280;63483;47.384;8.860;2024-02-23T07:12:51;92963.19;;;-1.93;51.50
74921;BME280;63483;47.384;8.860;2024-02-23T07:15:19;92970.06;;;-1.83;50.61
74921;BME280;63483;47.384;8.860;2024-02-23T07:17:45;92984.72;;;-1.58;51.22
74921;BME280;63483;47.384;8.860;2024-02-23T07:20:11;92986.47;;;-1.76;48.79
74921;BME280;63483;47.384;8.860;2024-02-23T07:22:36;92992.19;;;-1.82;49.47
74921;BME280;63483;47.384;8.860;2024-02-23T07:25:02;92989.16;;;-1.78;47.45
74921;BME280;63483;47.384;8.860;2024-02-23T07:27:29;92980.22;;;-1.74;48.23
74921;BME280;63483;47.384;8.860;2024-02-23T07:29:55;92984.38;;;-1.45;48.38
74921;BME280;63483;47.384;8.860;2024-02-23T07:32:20;92986.19;;;-1.37;47.38
74921;BME280;63483;47.384;8.860;2024-02-23T07:34:45;92988.81;;;-1.29;45.44
74921;BME280;63483;47.384;8.860;2024-02-23T07:37:11;93002.66;;;-1.04;46.09
74921;BME280;63483;47.384;8.860;2024-02-23T07:39:37;93002.66;;;-1.04;43.85
74921;BME280;63483;47.384;8.860;2024-02-23T07:42:03;93015.13;;;-0.99;43.78
74921;BME280;63483;47.384;8.860;2024-02-23T07:44:28;93003.50;;;-1.03;43.78
74921;BME280;63483;47.384;8.860;2024-02-23T07:46:54;92999.09;;;-0.93;43.53
74921;BME280;63483;47.384;8.860;2024-02-23T07:49:20;92994.50;;;-0.55;51.44
74921;BME280;63483;47.384;8.860;2024-02-23T07:51:47;92998.38;;;-1.03;53.30
74921;BME280;63483;47.384;8.860;2024-02-23T07:54:12;92992.44;;;-1.40;48.75
74921;BME280;63483;47.384;8.860;2024-02-23T07:56:38;92998.06;;;-1.72;47.79
74921;BME280;63483;47.384;8.860;2024-02-23T07:59:03;92993.34;;;-1.95;47.90
74921;BME280;63483;47.384;8.860;2024-02-23T08:01:29;92992.47;;;-2.13;48.74
74921;BME280;63483;47.384;8.860;2024-02-23T08:03:54;92991.72;;;-2.23;49.45
74921;BME280;63483;47.384;8.860;2024-02-23T08:06:19;92987.88;;;-2.10;50.73
74921;BME280;63483;47.384;8.860;2024-02-23T08:08:45;92988.81;;;-2.11;50.07
74921;BME280;63483;47.384;8.860;2024-02-23T08:11:11;92986.44;;;-1.94;50.01
74921;BME280;63483;47.384;8.860;2024-02-23T08:13:37;92991.72;;;-1.96;48.69
74921;BME280;63483;47.384;8.860;2024-02-23T08:16:02;92987.97;;;-2.01;47.35
74921;BME280;63483;47.384;8.860;2024-02-23T08:18:28;92985.59;;;-2.13;47.56
74921;BME280;63483;47.384;8.860;2024-02-23T08:20:54;92989.91;;;-2.13;48.55
74921;BME280;63483;47.384;8.860;2024-02-23T08:23:19;92996.19;;;-2.26;47.46
74921;BME280;63483;47.384;8.860;2024-02-23T08:25:47;92978.25;;;-2.26;46.95
74921;BME280;63483;47.384;8.860;2024-02-23T08:28:12;92978.81;;;-2.04;47.17
74921;BME280;63483;47.384;8.860;2024-02-23T08:30:37;92985.75;;;-2.14;46.88
74921;BME280;63483;47.384;8.860;2024-02-23T08:33:03;92989.06;;;-2.04;46.00
74921;BME280;63483;47.384;8.860;2024-02-23T08:35:28;92991.63;;;-2.04;47.05
74921;BME280;63483;47.384;8.860;2024-02-23T08:37:53;92984.41;;;-1.91;46.09
74921;BME280;63483;47.384;8.860;2024-02-23T08:40:19;92979.03;;;-1.79;45.34
74921;BME280;63483;47.384;8.860;2024-02-23T08:42:44;92979.44;;;-1.56;44.67
74921;BME280;63483;47.384;8.860;2024-02-23T08:45:10;92966.59;;;-1.56;43.88
74921;BME280;63483;47.384;8.860;2024-02-23T08:47:38;92979.88;;;-1.25;47.35
74921;BME280;63483;47.384;8.860;2024-02-23T08:50:04;92982.38;;;-1.33;58.97
74921;BME280;63483;47.384;8.860;2024-02-23T08:52:29;92982.50;;;-1.52;48.89
74921;BME280;63483;47.384;8.860;2024-02-23T08:54:55;92975.94;;;-1.73;47.21
74921;BME280;63483;47.384;8.860;2024-02-23T08:57:20;92976.03;;;-1.93;47.18
74921;BME280;63483;47.384;8.860;2024-02-23T08:59:48;92967.41;;;-1.56;49.14
74921;BME280;63483;47.384;8.860;2024-02-23T09:02:13;92949.97;;;-1.70;46.63
74921;BME280;63483;47.384;8.860;2024-02-23T09:04:38;92954.25;;;-1.88;46.56
74921;BME280;63483;47.384;8.860;2024-02-23T09:07:04;92963.19;;;-1.93;47.49
74921;BME280;63483;47.384;8.860;2024-02-23T09:09:29;92971.44;;;-2.17;46.76
74921;BME280;63483;47.384;8.860;2024-02-23T09:11:55;92984.84;;;-2.23;47.39
74921;BME280;63483;47.384;8.860;2024-02-23T09:14:20;92979.13;;;-2.17;47.27
74921;BME280;63483;47.384;8.860;2024-02-23T09:16:46;92985.16;;;-2.36;46.63
74921;BME280;63483;47.384;8.860;2024-02-23T09:19:12;92977.88;;;-2.31;47.80
74921;BME280;63483;47.384;8.860;2024-02-23T09:21:38;92971.94;;;-1.49;50.19
74921;BME280;63483;47.384;8.860;2024-02-23T09:24:04;92978.63;;;-0.76;48.24
74921;BME280;63483;47.384;8.860;2024-02-23T09:26:29;92972.16;;;-0.20;48.37
74921;BME280;63483;47.384;8.860;2024-02-23T09:28:55;92980.34;;;0.27;47.93
74921;BME280;63483;47.384;8.860;2024-02-23T09:31:20;92969.78;;;0.63;47.35
74921;BME280;63483;47.384;8.860;2024-02-23T09:33:45;92968.50;;;0.91;47.02
74921;BME280;63483;47.384;8.860;2024-02-23T09:36:11;92965.75;;;1.18;46.41
74921;BME280;63483;47.384;8.860;2024-02-23T09:38:37;92964.09;;;1.41;46.11
74921;BME280;63483;47.384;8.860;2024-02-23T09:41:03;92966.97;;;1.63;45.72
74921;BME280;63483;47.384;8.860;2024-02-23T09:43:29;92968.06;;;1.77;44.73
74921;BME280;63483;47.384;8.860;2024-02-23T09:45:58;92951.72;;;1.93;44.96
74921;BME280;63483;47.384;8.860;2024-02-23T09:48:24;92946.81;;;2.06;44.77
74921;BME280;63483;47.384;8.860;2024-02-23T09:50:52;92946.22;;;2.19;44.51
74921;BME280;63483;47.384;8.860;2024-02-23T09:53:19;92963.94;;;2.30;44.57
74921;BME280;63483;47.384;8.860;2024-02-23T09:55:46;92952.56;;;2.40;43.90
74921;BME280;63483;47.384;8.860;2024-02-23T09:58:13;92953.16;;;2.50;44.11
74921;BME280;63483;47.384;8.860;2024-02-23T10:00:45;92950.53;;;2.58;44.04
74921;BME280;63483;47.384;8.860;2024-02-23T10:03:11;92955.44;;;2.68;44.07
74921;BME280;63483;47.384;8.860;2024-02-23T10:05:36;92946.84;;;2.76;43.70
74921;BME280;63483;47.384;8.860;2024-02-23T10:08:04;92958.75;;;2.85;44.26
74921;BME280;63483;47.384;8.860;2024-02-23T10:10:30;92968.22;;;2.93;43.01
74921;BME280;63483;47.384;8.860;2024-02-23T10:12:57;92959.94;;;2.97;43.50
74921;BME280;63483;47.384;8.860;2024-02-23T10:15:22;92949.69;;;3.04;43.65
74921;BME280;63483;47.384;8.860;2024-02-23T10:17:48;92960.13;;;3.11;43.31
74921;BME280;63483;47.384;8.860;2024-02-23T10:20:14;92954.25;;;3.17;42.30
74921;BME280;63483;47.384;8.860;2024-02-23T10:22:39;92949.56;;;3.20;41.85
74921;BME280;63483;47.384;8.860;2024-02-23T10:25:04;92956.78;;;3.25;42.85
74921;BME280;63483;47.384;8.860;2024-02-23T10:27:30;92949.38;;;3.22;41.49
74921;BME280;63483;47.384;8.860;2024-02-23T10:29:55;92958.41;;;3.26;41.79
74921;BME280;63483;47.384;8.860;2024-02-23T10:32:21;92965.16;;;3.27;42.03
74921;BME280;63483;47.384;8.860;2024-02-23T10:34:50;92959.66;;;3.30;41.54
74921;BME280;63483;47.384;8.860;2024-02-23T10:37:16;92958.97;;;3.36;42.36
74921;BME280;63483;47.384;8.860;2024-02-23T10:39:42;92951.41;;;3.35;41.48
74921;BME280;63483;47.384;8.860;2024-02-23T10:42:09;92958.63;;;3.40;41.26
74921;BME280;63483;47.384;8.860;2024-02-23T10:44:35;92957.00;;;3.39;41.82
74921;BME280;63483;47.384;8.860;2024-02-23T10:47:02;92966.66;;;3.45;40.52
74921;BME280;63483;47.384;8.860;2024-02-23T10:49:28;92962.28;;;3.45;41.26
74921;BME280;63483;47.384;8.860;2024-02-23T10:51:55;92967.91;;;3.49;40.53
74921;BME280;63483;47.384;8.860;2024-02-23T10:54:21;92965.94;;;3.51;40.72
74921;BME280;63483;47.384;8.860;2024-02-23T10:56:49;92956.84;;;3.55;40.65
74921;BME280;63483;47.384;8.860;2024-02-23T10:59:15;92961.13;;;3.48;38.79
74921;BME280;63483;47.384;8.860;2024-02-23T11:01:46;92959.78;;;3.52;40.39
74921;BME280;63483;47.384;8.860;2024-02-23T11:04:13;92952.31;;;3.57;39.99
74921;BME280;63483;47.384;8.860;2024-02-23T11:06:39;92952.91;;;3.59;39.97
74921;BME280;63483;47.384;8.860;2024-02-23T11:09:06;92954.19;;;3.63;40.13
74921;BME280;63483;47.384;8.860;2024-02-23T11:11:36;92945.16;;;3.59;39.39
74921;BME280;63483;47.384;8.860;2024-02-23T11:14:03;92945.41;;;3.64;39.71
74921;BME280;63483;47.384;8.860;2024-02-23T11:16:32;92949.91;;;3.70;40.10
74921;BME280;63483;47.384;8.860;2024-02-23T11:19:04;92942.38;;;3.76;40.49
74921;BME280;63483;47.384;8.860;2024-02-23T11:21:34;92946.47;;;3.85;40.31
74921;BME280;63483;47.384;8.860;2024-02-23T11:24:02;92944.16;;;3.90;40.96
74921;BME280;63483;47.384;8.860;2024-02-23T11:26:28;92947.66;;;3.97;40.50
74921;BME280;63483;47.384;8.860;2024-02-23T11:28:53;92944.31;;;4.03;39.28
74921;BME280;63483;47.384;8.860;2024-02-23T11:31:23;92934.38;;;4.07;39.91
74921;BME280;63483;47.384;8.860;2024-02-23T11:33:50;92932.97;;;4.04;38.24
74921;BME280;63483;47.384;8.860;2024-02-23T11:36:29;92926.44;;;4.08;38.90
74921;BME280;63483;47.384;8.860;2024-02-23T11:38:57;92924.91;;;4.14;39.23
74921;BME280;63483;47.384;8.860;2024-02-23T11:41:23;92928.56;;;4.20;39.50
74921;BME280;63483;47.384;8.860;2024-02-23T11:43:50;92928.19;;;4.23;39.21
74921;BME280;63483;47.384;8.860;2024-02-23T11:46:19;92925.78;;;3.40;39.95
74921;BME280;63483;47.384;8.860;2024-02-23T11:48:45;92926.53;;;2.49;37.56
74921;BME280;63483;47.384;8.860;2024-02-23T11:51:13;92920.91;;;1.83;39.36
74921;BME280;63483;47.384;8.860;2024-02-23T11:53:38;92920.41;;;1.40;39.16
74921;BME280;63483;47.384;8.860;2024-02-23T11:56:05;92925.50;;;0.92;39.73
74921;BME280;63483;47.384;8.860;2024-02-23T11:58:30;92923.06;;;0.57;41.06
74921;BME280;63483;47.384;8.860;2024-02-23T12:00:56;92924.53;;;0.60;40.52
74921;BME280;63483;47.384;8.860;2024-02-23T12:03:21;92923.41;;;0.46;41.43
74921;BME280;63483;47.384;8.860;2024-02-23T12:05:49;92918.88;;;0.40;40.83
74921;BME280;63483;47.384;8.860;2024-02-23T12:08:15;92926.31;;;0.51;40.94
74921;BME280;63483;47.384;8.860;2024-02-23T12:10:40;92922.75;;;0.19;41.99
74921;BME280;63483;47.384;8.860;2024-02-23T12:13:06;92911.47;;;0.12;43.00
74921;BME280;63483;47.384;8.860;2024-02-23T12:15:31;92914.38;;;0.75;46.52
74921;BME280;63483;47.384;8.860;2024-02-23T12:17:58;92905.69;;;0.51;47.40
74921;BME280;63483;47.384;8.860;2024-02-23T12:20:24;92909.72;;;0.54;44.71
74921;BME280;63483;47.384;8.860;2024-02-23T12:22:49;92912.44;;;0.28;42.48
74921;BME280;63483;47.384;8.860;2024-02-23T12:25:14;92909.84;;;0.28;42.65
74921;BME280;63483;47.384;8.860;2024-02-23T12:27:40;92911.78;;;0.09;43.06
74921;BME280;63483;47.384;8.860;2024-02-23T12:30:13;92913.16;;;-0.13;42.21
74921;BME280;63483;47.384;8.860;2024-02-23T12:32:38;92918.47;;;-0.06;44.10
74921;BME280;63483;47.384;8.860;2024-02-23T12:35:04;92910.13;;;-0.00;43.38
74921;BME280;63483;47.384;8.860;2024-02-23T12:37:34;92908.53;;;-0.01;44.36
74921;BME280;63483;47.384;8.860;2024-02-23T12:40:00;92906.91;;;0.06;42.86
74921;BME280;63483;47.384;8.860;2024-02-23T12:42:25;92910.13;;;-0.08;44.14
74921;BME280;63483;47.384;8.860;2024-02-23T12:44:51;92908.22;;;0.10;42.55
74921;BME280;63483;47.384;8.860;2024-02-23T12:47:16;92897.88;;;-0.06;42.61
74921;BME280;63483;47.384;8.860;2024-02-23T12:49:41;92890.97;;;-0.14;41.98
74921;BME280;63483;47.384;8.860;2024-02-23T12:52:07;92891.66;;;0.13;43.59
74921;BME280;63483;47.384;8.860;2024-02-23T12:54:32;92886.97;;;-0.00;43.19
74921;BME280;63483;47.384;8.860;2024-02-23T12:56:57;92892.28;;;-0.02;42.71
74921;BME280;63483;47.384;8.860;2024-02-23T12:59:23;92877.00;;;0.30;42.39